sensor_id;sensor_type;location;lat;lon;timestamp;P1;durP1;ratioP1;P2;durP2;ratioP2
68993;SDS011;56054;50.968;5.816;2023-04-07T07:32:28;32.40;;;14.37;;
68993;SDS011;56054;50.968;5.816;2023-04-07T07:35:35;37.43;;;16.33;;
68993;SDS011;56054;50.968;5.816;2023-04-07T07:38:42;45.77;;;18.90;;
68993;SDS011;56054;50.968;5.816;2023-04-07T07:41:49;42.07;;;18.17;;
68993;SDS011;56054;50.968;5.816;2023-04-07T07:44:56;39.40;;;17.33;;
68993;SDS011;56054;50.968;5.816;2023-04-07T07:48:04;44.23;;;18.13;;
68993;SDS011;56054;50.968;5.816;2023-04-07T07:51:11;38.23;;;17.47;;
68993;SDS011;56054;50.968;5.816;2023-04-07T07:54:18;36.67;;;17.63;;
68993;SDS011;56054;50.968;5.816;2023-04-07T07:57:25;29.50;;;14.27;;
68993;SDS011;56054;50.968;5.816;2023-04-07T08:00:32;33.63;;;15.33;;
68993;SDS011;56054;50.968;5.816;2023-04-07T08:03:39;31.17;;;13.30;;
68993;SDS011;56054;50.968;5.816;2023-04-07T08:06:46;29.33;;;12.73;;
68993;SDS011;56054;50.968;5.816;2023-04-07T08:09:53;27.00;;;10.80;;
68993;SDS011;56054;50.968;5.816;2023-04-07T08:13:00;34.00;;;13.53;;
68993;SDS011;56054;50.968;5.816;2023-04-07T08:16:07;29.50;;;12.10;;
68993;SDS011;56054;50.968;5.816;2023-04-07T08:19:14;30.87;;;12.93;;
68993;SDS011;56054;50.968;5.816;2023-04-07T08:22:27;26.73;;;14.63;;
68993;SDS011;56054;50.968;5.816;2023-04-07T08:25:35;30.63;;;15.50;;
68993;SDS011;56054;50.968;5.816;2023-04-07T08:28:49;30.50;;;14.87;;
68993;SDS011;56054;50.968;5.816;2023-04-07T08:31:56;31.53;;;14.47;;
68993;SDS011;56054;50.968;5.816;2023-04-07T08:35:10;28.00;;;15.20;;
68993;SDS011;56054;50.968;5.816;2023-04-07T08:38:18;29.10;;;13.27;;
68993;SDS011;56054;50.968;5.816;2023-04-07T08:41:29;29.87;;;13.80;;
68993;SDS011;56054;50.968;5.816;2023-04-07T08:44:42;29.50;;;13.83;;
68993;SDS011;56054;50.968;5.816;2023-04-07T08:47:50;31.83;;;14.40;;
68993;SDS011;56054;50.968;5.816;2023-04-07T08:51:03;32.77;;;14.07;;
68993;SDS011;56054;50.968;5.816;2023-04-07T08:54:13;32.67;;;13.50;;
68993;SDS011;56054;50.968;5.816;2023-04-07T08:57:22;27.50;;;14.73;;
68993;SDS011;56054;50.968;5.816;2023-04-07T09:00:29;26.33;;;13.40;;
68993;SDS011;56054;50.968;5.816;2023-04-07T09:03:37;27.40;;;14.17;;
68993;SDS011;56054;50.968;5.816;2023-04-07T09:06:44;26.83;;;13.03;;
68993;SDS011;56054;50.968;5.816;2023-04-07T09:09:51;28.87;;;12.87;;
68993;SDS011;56054;50.968;5.816;2023-04-07T09:12:58;27.80;;;12.33;;
68993;SDS011;56054;50.968;5.816;2023-04-07T09:16:05;26.47;;;13.00;;
68993;SDS011;56054;50.968;5.816;2023-04-07T09:19:12;27.40;;;14.90;;
68993;SDS011;56054;50.968;5.816;2023-04-07T09:22:32;34.57;;;14.63;;
68993;SDS011;56054;50.968;5.816;2023-04-07T09:25:40;29.77;;;11.70;;
68993;SDS011;56054;50.968;5.816;2023-04-07T09:28:57;22.33;;;12.57;;
68993;SDS011;56054;50.968;5.816;2023-04-07T09:32:10;17.97;;;8.73;;
68993;SDS011;56054;50.968;5.816;2023-04-07T09:35:17;16.63;;;9.63;;
68993;SDS011;56054;50.968;5.816;2023-04-07T09:38:31;21.30;;;8.40;;
68993;SDS011;56054;50.968;5.816;2023-04-07T09:41:41;19.97;;;9.37;;
68993;SDS011;56054;50.968;5.816;2023-04-07T09:44:48;13.10;;;7.43;;
68993;SDS011;56054;50.968;5.816;2023-04-07T09:47:55;14.33;;;7.80;;
68993;SDS011;56054;50.968;5.816;2023-04-07T09:54:32;17.33;;;9.10;;
68993;SDS011;56054;50.968;5.816;2023-04-07T09:57:41;16.60;;;9.03;;
68993;SDS011;56054;50.968;5.816;2023-04-07T10:00:49;18.43;;;8.63;;
68993;SDS011;56054;50.968;5.816;2023-04-07T10:03:56;20.97;;;8.87;;
68993;SDS011;56054;50.968;5.816;2023-04-07T10:07:04;10.97;;;6.70;;
68993;SDS011;56054;50.968;5.816;2023-04-07T10:10:15;13.17;;;7.13;;
68993;SDS011;56054;50.968;5.816;2023-04-07T10:13:47;13.87;;;7.47;;
68993;SDS011;56054;50.968;5.816;2023-04-07T10:16:55;18.73;;;8.30;;
68993;SDS011;56054;50.968;5.816;2023-04-07T10:20:03;16.63;;;8.43;;
68993;SDS011;56054;50.968;5.816;2023-04-07T10:23:15;22.03;;;9.50;;
68993;SDS011;56054;50.968;5.816;2023-04-07T10:26:32;15.57;;;7.93;;
68993;SDS011;56054;50.968;5.816;2023-04-07T10:29:45;18.73;;;8.57;;
68993;SDS011;56054;50.968;5.816;2023-04-07T10:32:55;18.93;;;9.37;;
68993;SDS011;56054;50.968;5.816;2023-04-07T10:36:05;15.00;;;8.30;;
68993;SDS011;56054;50.968;5.816;2023-04-07T10:49:09;16.27;;;10.67;;
68993;SDS011;56054;50.968;5.816;2023-04-07T10:52:20;18.33;;;11.27;;
68993;SDS011;56054;50.968;5.816;2023-04-07T10:55:29;17.77;;;11.43;;
68993;SDS011;56054;50.968;5.816;2023-04-07T10:58:49;19.70;;;10.37;;
68993;SDS011;56054;50.968;5.816;2023-04-07T11:05:29;14.83;;;8.90;;
68993;SDS011;56054;50.968;5.816;2023-04-07T11:08:46;16.80;;;10.10;;
68993;SDS011;56054;50.968;5.816;2023-04-07T11:11:54;23.53;;;11.03;;
68993;SDS011;56054;50.968;5.816;2023-04-07T11:15:15;17.27;;;8.93;;
68993;SDS011;56054;50.968;5.816;2023-04-07T11:18:23;18.10;;;8.50;;
68993;SDS011;56054;50.968;5.816;2023-04-07T11:21:30;12.17;;;7.53;;
68993;SDS011;56054;50.968;5.816;2023-04-07T11:25:03;12.43;;;7.57;;
68993;SDS011;56054;50.968;5.816;2023-04-07T11:28:26;11.87;;;7.30;;
68993;SDS011;56054;50.968;5.816;2023-04-07T11:31:33;13.77;;;7.63;;
68993;SDS011;56054;50.968;5.816;2023-04-07T11:34:40;13.67;;;7.30;;
68993;SDS011;56054;50.968;5.816;2023-04-07T11:37:48;13.23;;;6.97;;
68993;SDS011;56054;50.968;5.816;2023-04-07T11:40:55;10.83;;;7.00;;
68993;SDS011;56054;50.968;5.816;2023-04-07T11:44:07;13.03;;;5.63;;
68993;SDS011;56054;50.968;5.816;2023-04-07T11:47:16;10.13;;;5.63;;
68993;SDS011;56054;50.968;5.816;2023-04-07T11:50:39;11.93;;;6.33;;
68993;SDS011;56054;50.968;5.816;2023-04-07T11:53:47;21.67;;;8.33;;
68993;SDS011;56054;50.968;5.816;2023-04-07T11:57:01;22.63;;;10.67;;
68993;SDS011;56054;50.968;5.816;2023-04-07T12:00:08;18.03;;;10.47;;
68993;SDS011;56054;50.968;5.816;2023-04-07T12:03:17;18.97;;;10.67;;
68993;SDS011;56054;50.968;5.816;2023-04-07T12:06:31;18.47;;;9.73;;
68993;SDS011;56054;50.968;5.816;2023-04-07T12:09:40;18.47;;;9.40;;
68993;SDS011;56054;50.968;5.816;2023-04-07T12:12:47;18.97;;;7.50;;
68993;SDS011;56054;50.968;5.816;2023-04-07T12:15:58;9.10;;;6.20;;
68993;SDS011;56054;50.968;5.816;2023-04-07T12:19:05;10.07;;;5.80;;
68993;SDS011;56054;50.968;5.816;2023-04-07T12:22:12;12.77;;;6.97;;
68993;SDS011;56054;50.968;5.816;2023-04-07T12:25:19;10.20;;;5.83;;
68993;SDS011;56054;50.968;5.816;2023-04-07T12:28:26;10.83;;;6.97;;
68993;SDS011;56054;50.968;5.816;2023-04-07T12:31:33;11.50;;;6.47;;
68993;SDS011;56054;50.968;5.816;2023-04-07T12:34:40;16.80;;;6.33;;
68993;SDS011;56054;50.968;5.816;2023-04-07T12:37:47;13.07;;;6.73;;
68993;SDS011;56054;50.968;5.816;2023-04-07T12:40:54;13.77;;;6.40;;
68993;SDS011;56054;50.968;5.816;2023-04-07T12:44:01;16.83;;;7.00;;
68993;SDS011;56054;50.968;5.816;2023-04-07T12:47:08;10.90;;;6.00;;
68993;SDS011;56054;50.968;5.816;2023-04-07T12:50:15;11.00;;;6.00;;
68993;SDS011;56054;50.968;5.816;2023-04-07T12:53:22;12.93;;;5.80;;
68993;SDS011;56054;50.968;5.816;2023-04-07T12:56:29;11.37;;;5.63;;
68993;SDS011;56054;50.968;5.816;2023-04-07T12:59:36;8.17;;;5.30;;
68993;SDS011;56054;50.968;5.816;2023-04-07T13:02:43;11.73;;;4.47;;
68993;SDS011;56054;50.968;5.816;2023-04-07T13:05:53;9.60;;;5.37;;
68993;SDS011;56054;50.968;5.816;2023-04-07T13:09:00;9.00;;;4.83;;
68993;SDS011;56054;50.968;5.816;2023-04-07T13:12:07;13.83;;;5.50;;
68993;SDS011;56054;50.968;5.816;2023-04-07T13:15:15;14.23;;;5.50;;
68993;SDS011;56054;50.968;5.816;2023-04-07T13:18:22;6.70;;;3.80;;
68993;SDS011;56054;50.968;5.816;2023-04-07T13:21:29;9.67;;;4.10;;
68993;SDS011;56054;50.968;5.816;2023-04-07T13:24:37;8.93;;;4.37;;
68993;SDS011;56054;50.968;5.816;2023-04-07T13:27:44;11.17;;;4.40;;
68993;SDS011;56054;50.968;5.816;2023-04-07T13:30:51;9.80;;;4.47;;
68993;SDS011;56054;50.968;5.816;2023-04-07T13:33:58;12.03;;;4.47;;
68993;SDS011;56054;50.968;5.816;2023-04-07T13:37:05;12.63;;;4.57;;
68993;SDS011;56054;50.968;5.816;2023-04-07T13:40:12;13.70;;;4.17;;
68993;SDS011;56054;50.968;5.816;2023-04-07T13:43:19;7.03;;;4.53;;
68993;SDS011;56054;50.968;5.816;2023-04-07T13:46:26;12.20;;;5.07;;
68993;SDS011;56054;50.968;5.816;2023-04-07T13:49:34;12.27;;;5.30;;
68993;SDS011;56054;50.968;5.816;2023-04-07T13:52:41;10.97;;;4.83;;
68993;SDS011;56054;50.968;5.816;2023-04-07T13:55:48;12.93;;;5.17;;
68993;SDS011;56054;50.968;5.816;2023-04-07T13:58:55;12.57;;;6.53;;
68993;SDS011;56054;50.968;5.816;2023-04-07T14:02:02;17.23;;;6.27;;
68993;SDS011;56054;50.968;5.816;2023-04-07T14:05:09;15.47;;;6.33;;
68993;SDS011;56054;50.968;5.816;2023-04-07T14:08:16;13.03;;;5.70;;
68993;SDS011;56054;50.968;5.816;2023-04-07T14:11:27;9.33;;;6.00;;
68993;SDS011;56054;50.968;5.816;2023-04-07T14:14:34;9.77;;;5.37;;
68993;SDS011;56054;50.968;5.816;2023-04-07T14:17:41;11.50;;;4.87;;
68993;SDS011;56054;50.968;5.816;2023-04-07T14:20:48;11.27;;;5.67;;
68993;SDS011;56054;50.968;5.816;2023-04-07T14:23:55;9.43;;;5.63;;
68993;SDS011;56054;50.968;5.816;2023-04-07T14:27:02;13.53;;;5.90;;
68993;SDS011;56054;50.968;5.816;2023-04-07T14:30:09;13.70;;;5.80;;
68993;SDS011;56054;50.968;5.816;2023-04-07T14:33:17;13.10;;;5.77;;
68993;SDS011;56054;50.968;5.816;2023-04-07T14:36:24;14.23;;;5.90;;
68993;SDS011;56054;50.968;5.816;2023-04-07T14:39:31;11.10;;;6.33;;
68993;SDS011;56054;50.968;5.816;2023-04-07T14:42:38;11.90;;;5.70;;
68993;SDS011;56054;50.968;5.816;2023-04-07T14:45:48;13.30;;;5.93;;
68993;SDS011;56054;50.968;5.816;2023-04-07T14:48:55;12.67;;;7.17;;
68993;SDS011;56054;50.968;5.816;2023-04-07T14:52:02;9.93;;;6.07;;
68993;SDS011;56054;50.968;5.816;2023-04-07T14:55:09;10.93;;;7.90;;
68993;SDS011;56054;50.968;5.816;2023-04-07T14:58:16;22.80;;;10.80;;
68993;SDS011;56054;50.968;5.816;2023-04-07T15:01:23;11.90;;;6.40;;
68993;SDS011;56054;50.968;5.816;2023-04-07T15:04:30;16.80;;;5.90;;
68993;SDS011;56054;50.968;5.816;2023-04-07T15:07:37;9.17;;;5.33;;
68993;SDS011;56054;50.968;5.816;2023-04-07T15:10:44;12.03;;;6.00;;
68993;SDS011;56054;50.968;5.816;2023-04-07T15:13:51;7.63;;;5.03;;
68993;SDS011;56054;50.968;5.816;2023-04-07T15:16:58;11.67;;;5.50;;
68993;SDS011;56054;50.968;5.816;2023-04-07T15:20:05;16.07;;;5.20;;
68993;SDS011;56054;50.968;5.816;2023-04-07T15:23:12;8.47;;;5.10;;
68993;SDS011;56054;50.968;5.816;2023-04-07T15:26:19;11.93;;;5.10;;
68993;SDS011;56054;50.968;5.816;2023-04-07T15:29:27;7.70;;;4.47;;
68993;SDS011;56054;50.968;5.816;2023-04-07T15:32:34;7.93;;;3.83;;
68993;SDS011;56054;50.968;5.816;2023-04-07T15:35:41;6.57;;;3.57;;
68993;SDS011;56054;50.968;5.816;2023-04-07T15:38:54;8.93;;;4.10;;
68993;SDS011;56054;50.968;5.816;2023-04-07T15:42:01;13.17;;;4.53;;
68993;SDS011;56054;50.968;5.816;2023-04-07T15:45:08;5.33;;;3.63;;
68993;SDS011;56054;50.968;5.816;2023-04-07T15:48:16;11.77;;;4.27;;
68993;SDS011;56054;50.968;5.816;2023-04-07T15:51:23;9.33;;;3.53;;
68993;SDS011;56054;50.968;5.816;2023-04-07T15:54:30;8.87;;;3.20;;
68993;SDS011;56054;50.968;5.816;2023-04-07T15:57:37;10.17;;;3.50;;
68993;SDS011;56054;50.968;5.816;2023-04-07T16:00:44;8.33;;;3.07;;
68993;SDS011;56054;50.968;5.816;2023-04-07T16:03:51;6.03;;;3.27;;
68993;SDS011;56054;50.968;5.816;2023-04-07T16:06:58;11.53;;;3.77;;
68993;SDS011;56054;50.968;5.816;2023-04-07T16:10:05;13.53;;;4.53;;
68993;SDS011;56054;50.968;5.816;2023-04-07T16:13:14;13.80;;;4.60;;
68993;SDS011;56054;50.968;5.816;2023-04-07T16:16:21;6.20;;;3.57;;
68993;SDS011;56054;50.968;5.816;2023-04-07T16:19:28;8.73;;;3.80;;
68993;SDS011;56054;50.968;5.816;2023-04-07T16:22:35;11.63;;;4.30;;
68993;SDS011;56054;50.968;5.816;2023-04-07T16:25:42;16.37;;;4.80;;
68993;SDS011;56054;50.968;5.816;2023-04-07T16:28:49;9.37;;;3.70;;
68993;SDS011;56054;50.968;5.816;2023-04-07T16:31:56;9.90;;;4.03;;
68993;SDS011;56054;50.968;5.816;2023-04-07T16:35:03;11.33;;;4.23;;
68993;SDS011;56054;50.968;5.816;2023-04-07T16:38:13;12.20;;;4.40;;
68993;SDS011;56054;50.968;5.816;2023-04-07T16:41:20;11.87;;;5.07;;
68993;SDS011;56054;50.968;5.816;2023-04-07T16:44:27;10.13;;;4.43;;
68993;SDS011;56054;50.968;5.816;2023-04-07T16:47:34;14.43;;;4.87;;
68993;SDS011;56054;50.968;5.816;2023-04-07T16:50:41;15.73;;;4.73;;
68993;SDS011;56054;50.968;5.816;2023-04-07T16:53:49;14.00;;;4.73;;
68993;SDS011;56054;50.968;5.816;2023-04-07T16:56:56;17.20;;;5.23;;
68993;SDS011;56054;50.968;5.816;2023-04-07T17:00:03;8.73;;;4.77;;
68993;SDS011;56054;50.968;5.816;2023-04-07T17:03:12;13.33;;;5.30;;
68993;SDS011;56054;50.968;5.816;2023-04-07T17:06:20;9.33;;;4.13;;
68993;SDS011;56054;50.968;5.816;2023-04-07T17:09:27;13.97;;;4.27;;
68993;SDS011;56054;50.968;5.816;2023-04-07T17:12:34;14.27;;;4.77;;
68993;SDS011;56054;50.968;5.816;2023-04-07T17:15:41;10.80;;;4.60;;
68993;SDS011;56054;50.968;5.816;2023-04-07T17:18:48;12.20;;;4.87;;
68993;SDS011;56054;50.968;5.816;2023-04-07T17:21:55;9.47;;;4.40;;
68993;SDS011;56054;50.968;5.816;2023-04-07T17:25:03;7.23;;;3.90;;
68993;SDS011;56054;50.968;5.816;2023-04-07T17:28:11;10.27;;;4.30;;
68993;SDS011;56054;50.968;5.816;2023-04-07T17:31:18;9.70;;;5.00;;
68993;SDS011;56054;50.968;5.816;2023-04-07T17:34:25;13.90;;;4.67;;
68993;SDS011;56054;50.968;5.816;2023-04-07T17:37:32;11.37;;;4.70;;
68993;SDS011;56054;50.968;5.816;2023-04-07T17:40:39;9.47;;;4.40;;
68993;SDS011;56054;50.968;5.816;2023-04-07T17:43:46;17.07;;;6.73;;
68993;SDS011;56054;50.968;5.816;2023-04-07T17:46:53;15.60;;;7.93;;
68993;SDS011;56054;50.968;5.816;2023-04-07T17:50:13;21.63;;;8.73;;
68993;SDS011;56054;50.968;5.816;2023-04-07T17:53:20;16.30;;;7.97;;
68993;SDS011;56054;50.968;5.816;2023-04-07T17:56:27;13.50;;;7.60;;
68993;SDS011;56054;50.968;5.816;2023-04-07T17:59:34;14.53;;;6.80;;
68993;SDS011;56054;50.968;5.816;2023-04-07T18:02:41;10.10;;;5.13;;
68993;SDS011;56054;50.968;5.816;2023-04-07T18:05:48;15.80;;;5.03;;
68993;SDS011;56054;50.968;5.816;2023-04-07T18:08:55;15.20;;;6.23;;
68993;SDS011;56054;50.968;5.816;2023-04-07T18:12:02;13.20;;;5.10;;
68993;SDS011;56054;50.968;5.816;2023-04-07T18:15:09;14.13;;;5.93;;
68993;SDS011;56054;50.968;5.816;2023-04-07T18:18:16;14.00;;;4.73;;
68993;SDS011;56054;50.968;5.816;2023-04-07T18:21:26;14.70;;;5.17;;
68993;SDS011;56054;50.968;5.816;2023-04-07T18:24:33;15.00;;;5.33;;
68993;SDS011;56054;50.968;5.816;2023-04-07T18:27:40;7.80;;;4.50;;
68993;SDS011;56054;50.968;5.816;2023-04-07T18:31:13;9.47;;;4.57;;
68993;SDS011;56054;50.968;5.816;2023-04-07T18:34:27;11.57;;;4.90;;
68993;SDS011;56054;50.968;5.816;2023-04-07T18:37:34;9.93;;;4.30;;
68993;SDS011;56054;50.968;5.816;2023-04-07T18:40:41;14.43;;;4.97;;
68993;SDS011;56054;50.968;5.816;2023-04-07T18:43:48;16.40;;;5.23;;
68993;SDS011;56054;50.968;5.816;2023-04-07T18:46:58;19.47;;;5.27;;
68993;SDS011;56054;50.968;5.816;2023-04-07T18:50:05;13.50;;;5.40;;
68993;SDS011;56054;50.968;5.816;2023-04-07T18:53:13;16.50;;;5.10;;
68993;SDS011;56054;50.968;5.816;2023-04-07T18:56:20;16.70;;;5.33;;
68993;SDS011;56054;50.968;5.816;2023-04-07T18:59:27;15.20;;;6.00;;
68993;SDS011;56054;50.968;5.816;2023-04-07T19:02:34;14.97;;;5.83;;
68993;SDS011;56054;50.968;5.816;2023-04-07T19:05:41;13.90;;;5.83;;
68993;SDS011;56054;50.968;5.816;2023-04-07T19:08:55;8.90;;;5.60;;
68993;SDS011;56054;50.968;5.816;2023-04-07T19:12:02;14.43;;;6.00;;
68993;SDS011;56054;50.968;5.816;2023-04-07T19:15:09;10.33;;;5.83;;
68993;SDS011;56054;50.968;5.816;2023-04-07T19:18:19;13.97;;;6.60;;
68993;SDS011;56054;50.968;5.816;2023-04-07T19:21:26;14.23;;;5.83;;
68993;SDS011;56054;50.968;5.816;2023-04-07T19:24:33;12.80;;;6.40;;
68993;SDS011;56054;50.968;5.816;2023-04-07T19:27:40;14.30;;;7.40;;
68993;SDS011;56054;50.968;5.816;2023-04-07T19:30:47;17.67;;;7.60;;
68993;SDS011;56054;50.968;5.816;2023-04-07T19:33:57;17.97;;;8.17;;
68993;SDS011;56054;50.968;5.816;2023-04-07T19:37:30;16.43;;;8.33;;
68993;SDS011;56054;50.968;5.816;2023-04-07T19:40:37;17.47;;;8.13;;
68993;SDS011;56054;50.968;5.816;2023-04-07T19:44:10;19.07;;;7.97;;
68993;SDS011;56054;50.968;5.816;2023-04-07T19:47:22;14.20;;;7.03;;
68993;SDS011;56054;50.968;5.816;2023-04-07T19:50:29;13.60;;;6.90;;
68993;SDS011;56054;50.968;5.816;2023-04-07T19:53:36;14.40;;;7.70;;
68993;SDS011;56054;50.968;5.816;2023-04-07T19:56:43;14.93;;;7.03;;
68993;SDS011;56054;50.968;5.816;2023-04-07T19:59:50;21.83;;;9.40;;
68993;SDS011;56054;50.968;5.816;2023-04-07T20:02:57;25.60;;;11.83;;
68993;SDS011;56054;50.968;5.816;2023-04-07T20:06:04;21.37;;;11.00;;
68993;SDS011;56054;50.968;5.816;2023-04-07T20:09:11;20.40;;;10.27;;
68993;SDS011;56054;50.968;5.816;2023-04-07T20:12:18;12.97;;;7.97;;
68993;SDS011;56054;50.968;5.816;2023-04-07T20:15:25;16.07;;;8.47;;
68993;SDS011;56054;50.968;5.816;2023-04-07T20:18:32;14.97;;;8.90;;
68993;SDS011;56054;50.968;5.816;2023-04-07T20:21:39;14.33;;;8.70;;
68993;SDS011;56054;50.968;5.816;2023-04-07T20:24:46;18.10;;;8.10;;
68993;SDS011;56054;50.968;5.816;2023-04-07T20:27:53;15.37;;;8.17;;
68993;SDS011;56054;50.968;5.816;2023-04-07T20:31:00;18.50;;;8.30;;
68993;SDS011;56054;50.968;5.816;2023-04-07T20:34:07;18.47;;;8.97;;
68993;SDS011;56054;50.968;5.816;2023-04-07T20:37:14;19.03;;;8.73;;
68993;SDS011;56054;50.968;5.816;2023-04-07T20:40:21;14.23;;;8.80;;
68993;SDS011;56054;50.968;5.816;2023-04-07T20:43:28;16.53;;;8.50;;
68993;SDS011;56054;50.968;5.816;2023-04-07T20:46:35;15.53;;;7.90;;
68993;SDS011;56054;50.968;5.816;2023-04-07T20:49:42;24.27;;;9.53;;
68993;SDS011;56054;50.968;5.816;2023-04-07T20:52:49;17.47;;;9.90;;
68993;SDS011;56054;50.968;5.816;2023-04-07T20:55:56;20.43;;;8.53;;
68993;SDS011;56054;50.968;5.816;2023-04-07T20:59:03;15.83;;;9.40;;
68993;SDS011;56054;50.968;5.816;2023-04-07T21:02:10;17.63;;;9.47;;
68993;SDS011;56054;50.968;5.816;2023-04-07T21:05:17;18.93;;;10.57;;
68993;SDS011;56054;50.968;5.816;2023-04-07T21:08:24;23.17;;;9.80;;
68993;SDS011;56054;50.968;5.816;2023-04-07T21:11:31;17.60;;;9.40;;
68993;SDS011;56054;50.968;5.816;2023-04-07T21:14:38;22.97;;;9.40;;
68993;SDS011;56054;50.968;5.816;2023-04-07T21:17:45;15.87;;;9.57;;
68993;SDS011;56054;50.968;5.816;2023-04-07T21:20:58;19.63;;;9.30;;
68993;SDS011;56054;50.968;5.816;2023-04-07T21:24:05;20.27;;;10.60;;
68993;SDS011;56054;50.968;5.816;2023-04-07T21:27:12;20.27;;;9.93;;
68993;SDS011;56054;50.968;5.816;2023-04-07T21:30:19;18.57;;;10.07;;
68993;SDS011;56054;50.968;5.816;2023-04-07T21:33:26;18.37;;;8.80;;
68993;SDS011;56054;50.968;5.816;2023-04-07T21:36:33;16.10;;;9.43;;
68993;SDS011;56054;50.968;5.816;2023-04-07T21:39:40;17.43;;;8.60;;
68993;SDS011;56054;50.968;5.816;2023-04-07T21:42:47;17.63;;;9.23;;
68993;SDS011;56054;50.968;5.816;2023-04-07T21:45:54;17.73;;;8.50;;
68993;SDS011;56054;50.968;5.816;2023-04-07T21:49:07;16.67;;;8.30;;
68993;SDS011;56054;50.968;5.816;2023-04-07T21:52:14;18.60;;;9.10;;
68993;SDS011;56054;50.968;5.816;2023-04-07T21:55:22;20.10;;;8.67;;
68993;SDS011;56054;50.968;5.816;2023-04-07T21:58:29;15.20;;;8.97;;
68993;SDS011;56054;50.968;5.816;2023-04-07T22:01:36;20.07;;;8.80;;
68993;SDS011;56054;50.968;5.816;2023-04-07T22:04:43;19.97;;;8.40;;
68993;SDS011;56054;50.968;5.816;2023-04-07T22:07:50;24.20;;;9.03;;
